LTBL/IGI METAR and TAF weather

Enter ICAO airport designator
Station Type Date Time Source
LTBL METAR 2020/09/22 18:50 UTC NOAA

LTBL 221850Z 25001KT CAVOK 21/16 Q1015 NOSIG RMK RWY17 24002KT


Station Type Date Time Source
LTBL Decoded METAR 2020/09/22 18:50 UTC NOAA

Izmir / Cigli, Turkey (LTBL) 38-30N 027-01E 5M
Sep 22, 2020 - 02:50 PM EDT / 2020.09.22 1850 UTC
Wind: from the WSW (250 degrees) at 1 MPH (1 KT):0
Visibility: greater than 7 mile(s):0
Temperature: 69 F (21 C)
Dew Point: 60 F (16 C)
Relative Humidity: 73%
Pressure (altimeter): 29.97 in. Hg (1015 hPa)
ob: LTBL 221850Z 25001KT CAVOK 21/16 Q1015 NOSIG RMK RWY17 24002KT
cycle: 19

Station Type Date Time Source
LTBL TAF UTC NOAA

Error!

Example: see airport list